Time;durP1;ratioP1;P1;durP2;ratioP2;P2;SDS_P1;SDS_P2;PMS_P1;PMS_P2;Temp;Humidity;BMP_temperature;BMP_pressure;BME280_temperature;BME280_humidity;BME280_pressure;Samples;Min_cycle;Max_cycle;Signal;HPM_P1;HPM_P2
2022/07/15 00:00:31;;;;;;;;;;;;;;;18.94;45.70;97184.78;30001;983;1880;-56
2022/07/15 00:01:02;;;;;;;;;;;;;;;18.94;45.83;97184.78;30001;982;1862;-55
2022/07/15 00:01:33;;;;;;;;;;;;;;;18.93;45.91;97185.12;30001;982;1866;-55
2022/07/15 00:02:05;;;;;;;;;;;;;;;18.92;45.51;97178.03;30001;982;1875;-56
2022/07/15 00:02:37;;;;;;;;;;;;;;;18.91;45.64;97187.41;30001;982;1875;-55
2022/07/15 00:03:08;;;;;;;;;;;;;;;18.92;45.58;97189.84;30001;982;1875;-55
2022/07/15 00:03:39;;;;;;;;;;;;;;;18.92;44.94;97183.53;30001;982;1875;-56
2022/07/15 00:04:10;;;;;;;;;;;;;;;18.90;45.75;97188.56;30001;982;1875;-56
2022/07/15 00:04:41;;;;;;;;;;;;;;;18.87;45.57;97186.47;30001;983;1861;-55
2022/07/15 00:05:11;;;;;;;;;;;;;;;18.86;45.72;97191.19;30001;983;1866;-57
2022/07/15 00:05:45;;;;;;;;;;;;;;;18.87;45.30;97186.47;30001;983;1862;-55
2022/07/15 00:06:16;;;;;;;;;;;;;;;18.86;45.48;97187.63;30001;983;1866;-55
2022/07/15 00:06:50;;;;;;;;;;;;;;;18.84;46.25;97192.66;30001;983;1875;-56
2022/07/15 00:07:21;;;;;;;;;;;;;;;18.81;45.71;97185.09;30001;971;1897;-55
2022/07/15 00:07:52;;;;;;;;;;;;;;;18.79;46.69;97195.63;30001;983;1875;-54
2022/07/15 00:08:23;;;;;;;;;;;;;;;18.74;46.68;97193.88;30001;983;1875;-55
2022/07/15 00:08:55;;;;;;;;;;;;;;;18.69;47.82;97191.38;30001;982;1875;-56
2022/07/15 00:10:14;;;;;;;;;;;;;;;18.60;47.02;97196.13;30001;982;1875;-56
2022/07/15 00:10:45;;;;;;;;;;;;;;;18.59;46.95;97197.25;30001;982;1862;-56
2022/07/15 00:11:16;;;;;;;;;;;;;;;18.57;47.01;97189.34;30001;982;1867;-55
2022/07/15 00:11:47;;;;;;;;;;;;;;;18.55;47.35;97194.38;30001;982;1862;-56
2022/07/15 00:12:18;;;;;;;;;;;;;;;18.53;47.26;97193.88;30001;983;1866;-55
2022/07/15 00:12:52;;;;;;;;;;;;;;;18.51;47.36;97196.16;30001;983;1875;-56
2022/07/15 00:13:24;;;;;;;;;;;;;;;18.49;47.35;97192.97;30001;983;1875;-57
2022/07/15 00:13:55;;;;;;;;;;;;;;;18.47;47.30;97200.72;30001;983;1875;-56
2022/07/15 00:14:28;;;;;;;;;;;;;;;18.43;47.72;97197.84;30001;983;1875;-56
2022/07/15 00:14:59;;;;;;;;;;;;;;;18.42;47.76;97198.19;30001;983;1875;-55
2022/07/15 00:15:34;;;;;;;;;;;;;;;18.36;47.96;97197.59;30001;983;1875;-56
2022/07/15 00:16:05;;;;;;;;;;;;;;;18.33;48.22;97195.53;30001;982;1875;-56
2022/07/15 00:16:36;;;;;;;;;;;;;;;18.30;49.88;97204.44;30001;982;1875;-56
2022/07/15 00:17:08;;;;;;;;;;;;;;;18.27;48.99;97201.56;30001;982;1862;-55
2022/07/15 00:17:39;;;;;;;;;;;;;;;18.25;48.77;97199.13;30001;982;1867;-56
2022/07/15 00:18:11;;;;;;;;;;;;;;;18.25;48.90;97195.59;30001;982;1862;-55
2022/07/15 00:18:42;;;;;;;;;;;;;;;18.21;48.92;97197.41;30001;982;1867;-56
2022/07/15 00:19:13;;;;;;;;;;;;;;;18.19;49.74;97197.72;30001;982;1875;-56
2022/07/15 00:19:46;;;;;;;;;;;;;;;18.16;49.43;97200.34;30001;983;1875;-56
2022/07/15 00:20:18;;;;;;;;;;;;;;;18.13;49.33;97201.00;30001;974;1877;-55
2022/07/15 00:20:49;;;;;;;;;;;;;;;18.12;49.03;97193.91;30001;983;1853;-55
2022/07/15 00:21:20;;;;;;;;;;;;;;;18.11;49.75;97197.78;30001;983;1862;-57
2022/07/15 00:21:51;;;;;;;;;;;;;;;18.05;49.50;97194.41;30001;983;1866;-56
2022/07/15 00:22:23;;;;;;;;;;;;;;;18.03;49.39;97192.00;30001;983;1875;-55
2022/07/15 00:22:53;;;;;;;;;;;;;;;18.01;49.32;97194.31;30001;983;1875;-56
2022/07/15 00:23:24;;;;;;;;;;;;;;;18.02;49.26;97193.16;30001;983;1875;-56
2022/07/15 00:23:59;;;;;;;;;;;;;;;17.99;49.50;97193.84;30001;982;1875;-56
2022/07/15 00:24:30;;;;;;;;;;;;;;;17.92;49.51;97195.50;30001;982;1875;-56
2022/07/15 00:25:00;;;;;;;;;;;;;;;17.87;50.59;97199.25;30001;982;1875;-56
2022/07/15 00:25:31;;;;;;;;;;;;;;;17.84;49.93;97196.34;30001;982;1875;-55
2022/07/15 00:26:02;;;;;;;;;;;;;;;17.84;50.08;97202.66;30001;982;1862;-55
2022/07/15 00:26:33;;;;;;;;;;;;;;;17.83;49.60;97197.50;30001;982;1867;-56
2022/07/15 00:27:04;;;;;;;;;;;;;;;17.81;49.44;97194.28;30001;983;1875;-56
2022/07/15 00:27:36;;;;;;;;;;;;;;;17.81;49.97;97200.56;30001;983;1875;-56
2022/07/15 00:28:07;;;;;;;;;;;;;;;17.78;50.57;97201.22;30001;983;1862;-56
2022/07/15 00:28:38;;;;;;;;;;;;;;;17.75;50.81;97201.88;30001;983;1866;-55
2022/07/15 00:29:10;;;;;;;;;;;;;;;17.72;50.58;97199.81;30001;986;1871;-56
2022/07/15 00:29:41;;;;;;;;;;;;;;;17.71;50.69;97198.19;30001;983;1875;-57
2022/07/15 00:30:12;;;;;;;;;;;;;;;17.70;50.49;97199.31;30001;983;1875;-57
2022/07/15 00:30:43;;;;;;;;;;;;;;;17.72;50.69;97208.03;30001;983;1875;-56
2022/07/15 00:31:16;;;;;;;;;;;;;;;17.71;51.15;97198.19;30001;982;1875;-56
2022/07/15 00:31:47;;;;;;;;;;;;;;;17.69;50.79;97195.78;30001;982;1875;-56
2022/07/15 00:32:18;;;;;;;;;;;;;;;17.68;50.90;97196.09;30001;982;1875;-55
2022/07/15 00:32:50;;;;;;;;;;;;;;;17.68;50.67;97196.91;30001;982;1875;-56
2022/07/15 00:33:21;;;;;;;;;;;;;;;17.68;50.98;97198.84;30001;982;1862;-56
2022/07/15 00:33:52;;;;;;;;;;;;;;;17.66;51.12;97203.91;30001;983;1866;-56
2022/07/15 00:34:23;;;;;;;;;;;;;;;17.62;51.28;97203.72;30001;983;1875;-56
2022/07/15 00:34:54;;;;;;;;;;;;;;;17.59;51.09;97203.56;30001;983;1875;-56
2022/07/15 00:35:25;;;;;;;;;;;;;;;17.57;51.42;97201.16;30001;983;1875;-57
2022/07/15 00:35:56;;;;;;;;;;;;;;;17.57;51.12;97203.09;30001;983;1875;-57
2022/07/15 00:36:26;;;;;;;;;;;;;;;17.55;51.55;97203.41;30001;983;1875;-55
2022/07/15 00:36:57;;;;;;;;;;;;;;;17.54;52.00;97201.00;30001;983;1875;-57
2022/07/15 00:37:28;;;;;;;;;;;;;;;17.48;51.77;97202.31;30001;983;1875;-56
2022/07/15 00:38:00;;;;;;;;;;;;;;;17.44;51.68;97202.16;30001;983;1875;-56
2022/07/15 00:38:31;;;;;;;;;;;;;;;17.40;51.83;97202.03;30001;983;1862;-56
2022/07/15 00:39:03;;;;;;;;;;;;;;;17.39;52.08;97205.91;30001;982;1866;-56
2022/07/15 00:39:36;;;;;;;;;;;;;;;17.39;51.76;97199.59;30001;982;1875;-57
2022/07/15 00:40:07;;;;;;;;;;;;;;;17.40;51.30;97202.03;30001;982;1875;-56
2022/07/15 00:40:48;;;;;;;;;;;;;;;17.38;51.21;97198.81;30001;982;1876;-58
2022/07/15 00:41:21;;;;;;;;;;;;;;;17.38;51.40;97204.28;30001;983;1875;-56
2022/07/15 00:41:53;;;;;;;;;;;;;;;17.36;50.97;97195.59;30001;983;1875;-56
2022/07/15 00:43:15;;;;;;;;;;;;;;;17.32;51.87;97200.16;30001;983;1875;-56
2022/07/15 00:43:46;;;;;;;;;;;;;;;17.31;51.97;97201.28;30001;983;1769;-56
2022/07/15 00:44:17;;;;;;;;;;;;;;;17.27;51.51;97208.56;30001;983;1866;-56
2022/07/15 00:44:48;;;;;;;;;;;;;;;17.25;51.12;97193.56;30001;983;1875;-56
2022/07/15 00:45:20;;;;;;;;;;;;;;;17.22;52.90;97207.91;30001;983;1875;-56
2022/07/15 00:45:52;;;;;;;;;;;;;;;17.22;52.18;97207.91;30001;983;1875;-56
2022/07/15 00:46:23;;;;;;;;;;;;;;;17.21;52.01;97203.56;30001;984;1875;-56
2022/07/15 00:46:54;;;;;;;;;;;;;;;17.23;51.51;97196.63;30001;982;1875;-57
2022/07/15 00:47:25;;;;;;;;;;;;;;;17.24;51.61;97200.16;30001;982;1875;-56
2022/07/15 00:47:57;;;;;;;;;;;;;;;17.23;51.16;97202.09;30001;982;1875;-55
2022/07/15 00:48:28;;;;;;;;;;;;;;;17.24;51.96;97197.44;30001;982;1875;-56
2022/07/15 00:48:59;;;;;;;;;;;;;;;17.23;52.78;97201.31;30001;983;1861;-56
2022/07/15 00:49:30;;;;;;;;;;;;;;;17.21;52.44;97198.88;30001;983;1866;-55
2022/07/15 00:50:01;;;;;;;;;;;;;;;17.22;52.36;97200.50;30001;983;1792;-56
2022/07/15 00:50:32;;;;;;;;;;;;;;;17.20;52.21;97196.47;30001;983;1875;-56
2022/07/15 00:51:06;;;;;;;;;;;;;;;17.20;51.71;97196.47;30001;983;1875;-56
2022/07/15 00:51:39;;;;;;;;;;;;;;;17.18;51.52;97188.56;30001;983;1875;-57
2022/07/15 00:52:12;;;;;;;;;;;;;;;17.16;51.94;97199.06;30001;983;1875;-56
2022/07/15 00:52:44;;;;;;;;;;;;;;;17.11;51.97;97204.72;30001;987;1875;-56
2022/07/15 00:53:18;;;;;;;;;;;;;;;17.12;52.17;97205.53;30001;983;1875;-57
2022/07/15 00:53:50;;;;;;;;;;;;;;;17.13;52.37;97207.12;30001;982;1875;-56
2022/07/15 00:54:25;;;;;;;;;;;;;;;17.12;53.60;97213.75;30001;982;1862;-57
2022/07/15 00:54:58;;;;;;;;;;;;;;;17.08;52.86;97208.09;30001;982;1867;-56
2022/07/15 00:55:31;;;;;;;;;;;;;;;17.08;52.83;97210.84;30001;982;1875;-56
2022/07/15 00:56:02;;;;;;;;;;;;;;;17.08;53.09;97216.34;30001;982;1875;-56
2022/07/15 00:56:38;;;;;;;;;;;;;;;17.07;53.01;97215.53;30001;983;1875;-56
2022/07/15 00:57:09;;;;;;;;;;;;;;;17.05;52.25;97211.50;30001;983;1862;-56
2022/07/15 00:57:42;;;;;;;;;;;;;;;17.02;52.11;97207.47;30001;983;1866;-57
2022/07/15 00:58:21;;;;;;;;;;;;;;;17.00;52.52;97203.44;30001;983;1875;-56
2022/07/15 00:58:52;;;;;;;;;;;;;;;16.99;53.04;97210.06;30001;983;1862;-56
2022/07/15 00:59:24;;;;;;;;;;;;;;;16.98;52.81;97211.22;30001;983;1866;-58
2022/07/15 00:59:59;;;;;;;;;;;;;;;16.99;53.07;97212.81;30001;983;1862;-56
2022/07/15 01:00:31;;;;;;;;;;;;;;;16.97;53.20;97209.63;30001;982;1866;-57
2022/07/15 01:01:02;;;;;;;;;;;;;;;16.95;52.81;97212.69;30001;982;1875;-56
2022/07/15 01:01:35;;;;;;;;;;;;;;;16.92;53.71;97212.53;30001;982;1875;-57
2022/07/15 01:02:06;;;;;;;;;;;;;;;16.89;54.23;97213.16;30001;982;1875;-56
2022/07/15 01:02:43;;;;;;;;;;;;;;;16.88;54.47;97211.56;30001;982;1876;-54
2022/07/15 01:03:16;;;;;;;;;;;;;;;16.86;53.35;97209.13;30001;982;1875;-56
2022/07/15 01:03:48;;;;;;;;;;;;;;;16.87;53.28;97209.94;30001;982;1862;-56
2022/07/15 01:04:21;;;;;;;;;;;;;;;16.88;53.13;97206.06;30001;983;1866;-57
2022/07/15 01:04:53;;;;;;;;;;;;;;;16.88;53.21;97211.56;30001;983;1875;-56
2022/07/15 01:05:24;;;;;;;;;;;;;;;16.87;53.38;97215.44;30001;983;1875;-56
2022/07/15 01:05:56;;;;;;;;;;;;;;;16.85;53.19;97209.47;30001;983;1875;-56
2022/07/15 01:06:28;;;;;;;;;;;;;;;16.86;53.87;97208.34;30001;983;1875;-56
2022/07/15 01:06:59;;;;;;;;;;;;;;;16.84;53.86;97208.66;30001;983;1875;-56
2022/07/15 01:07:31;;;;;;;;;;;;;;;16.84;53.70;97211.41;30001;983;1875;-56
2022/07/15 01:08:03;;;;;;;;;;;;;;;16.83;53.81;97211.72;30001;982;1862;-56
2022/07/15 01:08:35;;;;;;;;;;;;;;;16.82;54.29;97212.84;30001;982;1866;-57
2022/07/15 01:09:06;;;;;;;;;;;;;;;16.81;54.10;97208.50;30001;982;1875;-57
2022/07/15 01:09:37;;;;;;;;;;;;;;;16.81;53.23;97205.75;30001;982;1875;-57
2022/07/15 01:10:08;;;;;;;;;;;;;;;16.80;53.83;97204.97;30001;982;1875;-57
2022/07/15 01:10:40;;;;;;;;;;;;;;;16.80;53.88;97209.63;30001;982;1875;-57
2022/07/15 01:11:11;;;;;;;;;;;;;;;16.81;53.36;97211.25;30001;982;1862;-57
2022/07/15 01:11:42;;;;;;;;;;;;;;;16.79;53.36;97210.75;30001;983;1866;-56
2022/07/15 01:12:13;;;;;;;;;;;;;;;16.78;53.46;97204.47;30001;983;1875;-57
2022/07/15 01:12:46;;;;;;;;;;;;;;;16.79;53.61;97206.09;30001;983;1874;-56
2022/07/15 01:13:19;;;;;;;;;;;;;;;16.77;53.37;97207.53;30001;983;1861;-58
2022/07/15 01:13:50;;;;;;;;;;;;;;;16.75;53.30;97200.44;30001;983;1866;-57
2022/07/15 01:14:21;;;;;;;;;;;;;;;16.75;54.01;97213.34;30001;983;1875;-56
2022/07/15 01:14:53;;;;;;;;;;;;;;;16.74;53.68;97212.53;30001;983;1875;-56
2022/07/15 01:15:25;;;;;;;;;;;;;;;16.70;54.19;97206.09;30001;983;1875;-56
2022/07/15 01:15:56;;;;;;;;;;;;;;;16.71;53.95;97213.19;30001;982;1875;-56
2022/07/15 01:16:27;;;;;;;;;;;;;;;16.71;54.73;97213.19;30001;982;1875;-58
2022/07/15 01:16:58;;;;;;;;;;;;;;;16.72;54.09;97212.06;30001;982;1875;-56
2022/07/15 01:17:29;;;;;;;;;;;;;;;16.73;53.95;97219.16;30001;982;1862;-56
2022/07/15 01:18:00;;;;;;;;;;;;;;;16.72;53.82;97211.25;30001;982;1867;-56
2022/07/15 01:18:31;;;;;;;;;;;;;;;16.72;54.98;97220.28;30001;982;1875;-57
2022/07/15 01:19:02;;;;;;;;;;;;;;;16.73;53.92;97215.59;30001;983;1875;-56
2022/07/15 01:19:33;;;;;;;;;;;;;;;16.72;54.76;97214.78;30001;983;1875;-56
2022/07/15 01:20:05;;;;;;;;;;;;;;;16.71;55.29;97210.44;30001;983;1875;-56
2022/07/15 01:20:39;;;;;;;;;;;;;;;16.69;54.18;97215.44;30001;983;1875;-56
2022/07/15 01:21:10;;;;;;;;;;;;;;;16.64;54.59;97223.81;30001;983;1862;-56
2022/07/15 01:21:41;;;;;;;;;;;;;;;16.63;55.13;97219.44;30001;972;1885;-57
2022/07/15 01:22:12;;;;;;;;;;;;;;;16.63;55.92;97230.41;30001;983;1875;-55
2022/07/15 01:22:43;;;;;;;;;;;;;;;16.61;56.06;97219.00;30001;983;1875;-55
2022/07/15 01:23:14;;;;;;;;;;;;;;;16.61;55.58;97219.00;30001;982;1875;-55
2022/07/15 01:23:46;;;;;;;;;;;;;;;16.61;54.88;97219.00;30001;982;1862;-56
2022/07/15 01:24:17;;;;;;;;;;;;;;;16.64;54.54;97218.34;30001;982;1866;-56
2022/07/15 01:24:48;;;;;;;;;;;;;;;16.66;54.69;97212.53;30001;982;1875;-56
2022/07/15 01:25:19;;;;;;;;;;;;;;;16.65;54.44;97214.47;30001;982;1862;-57
2022/07/15 01:25:53;;;;;;;;;;;;;;;16.64;55.65;97212.88;30001;982;1867;-56
2022/07/15 01:26:24;;;;;;;;;;;;;;;16.62;54.99;97215.12;30001;982;1875;-56
2022/07/15 01:26:55;;;;;;;;;;;;;;;16.61;55.18;97213.50;30001;983;1875;-56
2022/07/15 01:27:27;;;;;;;;;;;;;;;16.62;55.06;97214.31;30001;986;1862;-56
2022/07/15 01:27:58;;;;;;;;;;;;;;;16.60;54.78;97211.91;30001;983;1866;-56
2022/07/15 01:28:29;;;;;;;;;;;;;;;16.62;54.93;97211.56;30001;983;1875;-55
2022/07/15 01:29:00;;;;;;;;;;;;;;;16.61;54.86;97216.25;30001;983;1875;-56
2022/07/15 01:29:31;;;;;;;;;;;;;;;16.60;54.56;97217.38;30001;983;1875;-56
2022/07/15 01:30:02;;;;;;;;;;;;;;;16.59;54.50;97215.75;30001;972;1896;-57
2022/07/15 01:30:33;;;;;;;;;;;;;;;16.59;54.94;97221.25;30001;983;1875;-56
2022/07/15 01:31:04;;;;;;;;;;;;;;;16.57;55.59;97217.22;30001;982;1875;-56
2022/07/15 01:31:35;;;;;;;;;;;;;;;16.53;55.31;97222.53;30001;982;1862;-56
2022/07/15 01:32:06;;;;;;;;;;;;;;;16.49;55.40;97227.03;30001;981;1853;-57
2022/07/15 01:32:38;;;;;;;;;;;;;;;16.47;55.20;97223.81;30001;982;1875;-56
2022/07/15 01:33:08;;;;;;;;;;;;;;;16.47;56.87;97229.28;30001;982;1875;-56
2022/07/15 01:33:39;;;;;;;;;;;;;;;16.47;55.99;97225.75;30001;983;1875;-56
2022/07/15 01:34:10;;;;;;;;;;;;;;;16.46;56.03;97232.34;30001;983;1875;-56
2022/07/15 01:34:41;;;;;;;;;;;;;;;16.43;56.06;97222.84;30001;983;1875;-58
2022/07/15 01:35:13;;;;;;;;;;;;;;;16.41;55.94;97231.38;30001;983;1875;-56
2022/07/15 01:35:45;;;;;;;;;;;;;;;16.42;55.26;97219.31;30001;983;1875;-56
2022/07/15 01:36:15;;;;;;;;;;;;;;;16.43;55.80;97217.38;30001;983;1875;-56
2022/07/15 01:36:46;;;;;;;;;;;;;;;16.41;55.65;97225.09;30001;983;1875;-56
2022/07/15 01:37:17;;;;;;;;;;;;;;;16.40;55.65;97227.03;30001;983;1862;-56
2022/07/15 01:37:49;;;;;;;;;;;;;;;16.40;55.29;97218.81;30001;983;1866;-56
2022/07/15 01:38:19;;;;;;;;;;;;;;;16.41;55.56;97219.63;30001;982;1875;-55
2022/07/15 01:38:50;;;;;;;;;;;;;;;16.45;55.46;97222.53;30001;959;1811;-56
2022/07/15 01:39:21;;;;;;;;;;;;;;;16.45;55.22;97217.84;30001;982;1875;-56
2022/07/15 01:39:52;;;;;;;;;;;;;;;16.41;54.98;97214.97;30001;982;1875;-57
2022/07/15 01:40:23;;;;;;;;;;;;;;;16.41;55.09;97220.44;30001;982;1875;-56
2022/07/15 01:40:54;;;;;;;;;;;;;;;16.42;55.17;97216.56;30001;983;1875;-56
2022/07/15 01:41:25;;;;;;;;;;;;;;;16.43;55.94;97220.13;30001;983;1875;-56
2022/07/15 01:41:56;;;;;;;;;;;;;;;16.43;55.69;97222.84;30001;983;1875;-56
2022/07/15 01:42:27;;;;;;;;;;;;;;;16.42;55.07;97224.78;30001;983;1862;-56
2022/07/15 01:42:58;;;;;;;;;;;;;;;16.45;55.09;97219.78;30001;983;1853;-56
2022/07/15 01:43:28;;;;;;;;;;;;;;;16.46;54.97;97216.72;30001;983;1875;-56
2022/07/15 01:43:59;;;;;;;;;;;;;;;16.50;54.35;97205.94;30001;983;1875;-56
2022/07/15 01:44:30;;;;;;;;;;;;;;;16.53;54.43;97210.78;30001;983;1875;-56
2022/07/15 01:45:03;;;;;;;;;;;;;;;16.56;54.20;97210.13;30001;983;1875;-56
2022/07/15 01:45:34;;;;;;;;;;;;;;;16.57;54.57;97212.53;30001;983;1875;-56
2022/07/15 01:46:05;;;;;;;;;;;;;;;16.58;55.35;97222.38;30001;982;1875;-57
2022/07/15 01:46:36;;;;;;;;;;;;;;;16.56;55.10;97216.41;30001;982;1875;-56
2022/07/15 01:47:07;;;;;;;;;;;;;;;16.57;54.55;97209.81;30001;982;1875;-56
2022/07/15 01:47:44;;;;;;;;;;;;;;;16.55;54.85;97214.78;30001;987;1862;-55
2022/07/15 01:49:21;;;;;;;;;;;;;;;16.60;54.39;97211.91;30001;983;1879;-56
2022/07/15 01:49:52;;;;;;;;;;;;;;;16.61;53.93;97213.50;30001;983;1879;-56
2022/07/15 01:50:23;;;;;;;;;;;;;;;16.61;54.08;97208.03;30001;983;1866;-57
2022/07/15 01:50:55;;;;;;;;;;;;;;;16.63;54.00;97211.22;30001;983;1870;-56
2022/07/15 01:51:26;;;;;;;;;;;;;;;16.63;54.45;97205.75;30001;983;1879;-56
2022/07/15 01:51:58;;;;;;;;;;;;;;;16.64;53.95;97217.53;30001;983;1879;-56
2022/07/15 01:52:29;;;;;;;;;;;;;;;16.64;54.08;97206.59;30001;983;1879;-56
2022/07/15 01:53:00;;;;;;;;;;;;;;;16.66;54.14;97210.59;30001;983;1879;-56
2022/07/15 01:53:31;;;;;;;;;;;;;;;16.66;54.24;97210.59;30001;982;1880;-56
2022/07/15 01:54:02;;;;;;;;;;;;;;;16.66;53.77;97213.34;30001;982;1880;-55
2022/07/15 01:54:33;;;;;;;;;;;;;;;16.66;54.59;97218.81;30001;982;1867;-56
2022/07/15 01:55:05;;;;;;;;;;;;;;;16.66;54.42;97212.53;30001;982;1871;-58
2022/07/15 01:55:36;;;;;;;;;;;;;;;16.66;54.45;97215.28;30001;982;1880;-56
2022/07/15 01:56:07;;;;;;;;;;;;;;;16.66;54.01;97210.59;30001;983;1866;-56
2022/07/15 01:56:38;;;;;;;;;;;;;;;16.67;54.28;97212.22;30001;983;1870;-57
2022/07/15 01:57:09;;;;;;;;;;;;;;;16.68;53.76;97213.84;30001;963;1848;-56
2022/07/15 01:57:39;;;;;;;;;;;;;;;16.70;53.98;97210.75;30001;983;1866;-56
2022/07/15 01:58:10;;;;;;;;;;;;;;;16.70;53.57;97208.03;30001;983;1870;-57
2022/07/15 01:58:42;;;;;;;;;;;;;;;16.71;53.94;97210.44;30001;983;1879;-56
2022/07/15 01:59:13;;;;;;;;;;;;;;;16.73;53.75;97210.13;30001;983;1879;-57
2022/07/15 01:59:44;;;;;;;;;;;;;;;16.73;53.45;97205.44;30001;983;1866;-56
2022/07/15 02:00:17;;;;;;;;;;;;;;;16.73;53.55;97204.66;30001;982;1858;-56
2022/07/15 02:00:49;;;;;;;;;;;;;;;16.72;54.00;97203.84;30001;982;1866;-56
2022/07/15 02:01:19;;;;;;;;;;;;;;;16.71;54.03;97207.72;30001;982;1858;-57
2022/07/15 02:01:51;;;;;;;;;;;;;;;16.72;54.14;97214.78;30001;982;1880;-56
2022/07/15 02:02:22;;;;;;;;;;;;;;;16.71;53.67;97207.72;30001;982;1880;-56
2022/07/15 02:02:54;;;;;;;;;;;;;;;16.71;53.97;97207.72;30001;982;1880;-56
2022/07/15 02:03:26;;;;;;;;;;;;;;;16.73;53.76;97210.94;30001;983;1879;-56
2022/07/15 02:03:57;;;;;;;;;;;;;;;16.73;53.55;97204.66;30001;983;1879;-56
2022/07/15 02:04:28;;;;;;;;;;;;;;;16.72;53.49;97214.00;30001;983;1879;-56
2022/07/15 02:04:59;;;;;;;;;;;;;;;16.72;53.81;97203.84;30001;983;1866;-56
2022/07/15 02:05:31;;;;;;;;;;;;;;;16.73;53.80;97204.66;30001;983;1870;-55
2022/07/15 02:06:02;;;;;;;;;;;;;;;16.73;53.64;97199.97;30001;983;1879;-54
2022/07/15 02:06:33;;;;;;;;;;;;;;;16.73;53.47;97194.50;30001;983;1879;-55
2022/07/15 02:07:04;;;;;;;;;;;;;;;16.73;53.81;97199.97;30001;983;1866;-54
2022/07/15 02:07:36;;;;;;;;;;;;;;;16.75;53.69;97199.66;30001;982;1871;-55
2022/07/15 02:08:08;;;;;;;;;;;;;;;16.74;53.84;97201.56;30001;982;1879;-55
2022/07/15 02:08:39;;;;;;;;;;;;;;;16.75;53.60;97197.72;30001;982;1880;-55
2022/07/15 02:09:10;;;;;;;;;;;;;;;16.77;53.83;97204.81;30001;982;1880;-55
2022/07/15 02:09:41;;;;;;;;;;;;;;;16.77;53.58;97202.06;30001;982;1880;-56
2022/07/15 02:10:12;;;;;;;;;;;;;;;16.75;53.49;97203.19;30001;982;1880;-55
2022/07/15 02:10:43;;;;;;;;;;;;;;;16.74;53.53;97198.03;30001;982;1880;-55
2022/07/15 02:11:14;;;;;;;;;;;;;;;16.72;53.86;97203.84;30001;983;1789;-55
2022/07/15 02:11:46;;;;;;;;;;;;;;;16.73;53.49;97204.66;30001;983;1866;-56
2022/07/15 02:12:17;;;;;;;;;;;;;;;16.71;53.74;97204.16;30001;983;1870;-56
2022/07/15 02:12:48;;;;;;;;;;;;;;;16.71;53.47;97202.22;30001;983;1879;-57
2022/07/15 02:13:20;;;;;;;;;;;;;;;16.69;53.73;97199.00;30001;983;1879;-56
2022/07/15 02:13:52;;;;;;;;;;;;;;;16.68;53.38;97200.12;30001;983;1879;-56
2022/07/15 02:14:23;;;;;;;;;;;;;;;16.68;53.72;97202.88;30001;983;1879;-56
2022/07/15 02:14:54;;;;;;;;;;;;;;;16.68;53.77;97208.34;30001;983;1866;-56
2022/07/15 02:15:25;;;;;;;;;;;;;;;16.65;53.97;97205.44;30001;982;1871;-57
2022/07/15 02:15:56;;;;;;;;;;;;;;;16.63;53.86;97203.00;30001;982;1879;-56
2022/07/15 02:16:27;;;;;;;;;;;;;;;16.62;53.87;97201.44;30001;982;1880;-56
2022/07/15 02:16:58;;;;;;;;;;;;;;;16.62;53.80;97204.16;30001;982;1880;-55
2022/07/15 02:17:29;;;;;;;;;;;;;;;16.62;53.99;97206.91;30001;982;1867;-57
2022/07/15 02:18:00;;;;;;;;;;;;;;;16.64;53.42;97203.84;30001;982;1858;-56
2022/07/15 02:18:31;;;;;;;;;;;;;;;16.65;53.46;97197.22;30001;983;1879;-55
2022/07/15 02:19:02;;;;;;;;;;;;;;;16.65;53.15;97202.72;30001;983;1879;-56
2022/07/15 02:19:34;;;;;;;;;;;;;;;16.65;53.27;97198.03;30001;983;1879;-57
2022/07/15 02:20:05;;;;;;;;;;;;;;;16.64;53.46;97201.91;30001;983;1866;-56
2022/07/15 02:20:37;;;;;;;;;;;;;;;16.64;53.58;97207.38;30001;983;1870;-56
2022/07/15 02:21:08;;;;;;;;;;;;;;;16.64;53.21;97196.44;30001;983;1879;-57
2022/07/15 02:21:39;;;;;;;;;;;;;;;16.64;53.23;97201.09;30001;983;1879;-56
2022/07/15 02:22:10;;;;;;;;;;;;;;;16.64;53.75;97198.38;30001;983;1879;-56
2022/07/15 02:22:41;;;;;;;;;;;;;;;16.64;53.86;97195.63;30001;982;1880;-56
2022/07/15 02:23:12;;;;;;;;;;;;;;;16.63;53.43;97200.25;30001;982;1880;-57
2022/07/15 02:23:43;;;;;;;;;;;;;;;16.64;53.63;97190.13;30001;982;1880;-54
2022/07/15 02:24:14;;;;;;;;;;;;;;;16.65;53.60;97195.28;30001;982;1866;-56
2022/07/15 02:24:45;;;;;;;;;;;;;;;16.67;53.10;97200.44;30001;982;1858;-56
2022/07/15 02:25:16;;;;;;;;;;;;;;;16.65;53.11;97192.56;30001;982;1867;-56
2022/07/15 02:25:47;;;;;;;;;;;;;;;16.67;53.23;97194.97;30001;982;1871;-56
2022/07/15 02:26:18;;;;;;;;;;;;;;;16.68;53.23;97194.66;30001;983;1879;-56
2022/07/15 02:26:49;;;;;;;;;;;;;;;16.68;53.37;97194.66;30001;983;1879;-56
2022/07/15 02:27:21;;;;;;;;;;;;;;;16.69;53.13;97190.78;30001;983;1879;-55
2022/07/15 02:27:59;;;;;;;;;;;;;;;16.69;52.99;97193.53;30001;983;1879;-56
2022/07/15 02:28:31;;;;;;;;;;;;;;;16.69;53.28;97199.00;30001;983;1866;-58
2022/07/15 02:29:02;;;;;;;;;;;;;;;16.69;53.42;97193.53;30001;983;1857;-56
2022/07/15 02:29:33;;;;;;;;;;;;;;;16.69;54.31;97204.47;30001;983;1879;-56
2022/07/15 02:30:05;;;;;;;;;;;;;;;16.67;53.82;97195.78;30001;983;1879;-56
2022/07/15 02:30:37;;;;;;;;;;;;;;;16.67;53.46;97203.19;30001;982;1880;-57
2022/07/15 02:31:08;;;;;;;;;;;;;;;16.67;53.85;97201.25;30001;982;1880;-56
2022/07/15 02:31:39;;;;;;;;;;;;;;;16.68;53.74;97199.31;30001;982;1866;-55
2022/07/15 02:32:10;;;;;;;;;;;;;;;16.68;53.29;97202.88;30001;982;1871;-56
2022/07/15 02:32:41;;;;;;;;;;;;;;;16.69;53.21;97198.19;30001;982;1880;-56
2022/07/15 02:33:13;;;;;;;;;;;;;;;16.68;53.44;97197.41;30001;983;1879;-56
2022/07/15 02:33:44;;;;;;;;;;;;;;;16.68;53.03;97194.66;30001;983;1879;-56
2022/07/15 02:34:15;;;;;;;;;;;;;;;16.69;53.30;97198.19;30001;983;1879;-56
2022/07/15 02:34:46;;;;;;;;;;;;;;;16.69;53.13;97199.00;30001;983;1866;-56
2022/07/15 02:35:17;;;;;;;;;;;;;;;16.68;53.00;97189.16;30001;987;1849;-56
2022/07/15 02:35:49;;;;;;;;;;;;;;;16.69;53.29;97199.00;30001;983;1875;-56
2022/07/15 02:36:20;;;;;;;;;;;;;;;16.69;53.21;97188.03;30001;983;1862;-56
2022/07/15 02:36:51;;;;;;;;;;;;;;;16.69;52.85;97190.78;30001;983;1866;-55
2022/07/15 02:37:22;;;;;;;;;;;;;;;16.69;53.04;97182.56;30001;983;1875;-56
2022/07/15 02:37:54;;;;;;;;;;;;;;;16.70;52.89;97195.13;30001;982;1875;-58
2022/07/15 02:38:25;;;;;;;;;;;;;;;16.69;52.98;97185.31;30001;982;1875;-56
2022/07/15 02:38:56;;;;;;;;;;;;;;;16.69;52.97;97192.72;30001;982;1875;-56
2022/07/15 02:39:27;;;;;;;;;;;;;;;16.68;52.97;97189.16;30001;982;1875;-56
2022/07/15 02:39:58;;;;;;;;;;;;;;;16.68;52.48;97185.62;30001;982;1875;-56
2022/07/15 02:40:30;;;;;;;;;;;;;;;16.68;52.70;97186.44;30001;983;1875;-56
2022/07/15 02:41:02;;;;;;;;;;;;;;;16.67;52.54;97184.81;30001;983;1861;-57
2022/07/15 02:41:33;;;;;;;;;;;;;;;16.66;52.70;97188.69;30001;983;1866;-56
2022/07/15 02:42:05;;;;;;;;;;;;;;;16.66;52.39;97188.69;30001;983;1875;-56
2022/07/15 02:42:37;;;;;;;;;;;;;;;16.66;52.30;97182.41;30001;983;1875;-56
2022/07/15 02:43:08;;;;;;;;;;;;;;;16.67;52.07;97179.34;30001;983;1875;-56
2022/07/15 02:43:41;;;;;;;;;;;;;;;16.65;52.10;97184.34;30001;983;1862;-56
2022/07/15 02:44:13;;;;;;;;;;;;;;;16.65;52.27;97181.59;30001;983;1866;-56
2022/07/15 02:44:44;;;;;;;;;;;;;;;16.66;52.25;97188.69;30001;983;1875;-56
2022/07/15 02:45:15;;;;;;;;;;;;;;;16.65;52.36;97184.34;30001;983;1862;-57
2022/07/15 02:45:46;;;;;;;;;;;;;;;16.65;52.14;97181.59;30001;982;1866;-56
2022/07/15 02:46:17;;;;;;;;;;;;;;;16.65;52.03;97181.59;30001;964;1901;-56
2022/07/15 02:46:48;;;;;;;;;;;;;;;16.65;52.29;97183.53;30001;982;1875;-56
2022/07/15 02:47:19;;;;;;;;;;;;;;;16.66;51.84;97188.69;30001;982;1862;-56
2022/07/15 02:47:51;;;;;;;;;;;;;;;16.65;51.91;97176.13;30001;983;1866;-56
2022/07/15 02:48:22;;;;;;;;;;;;;;;16.64;51.64;97187.41;30001;983;1875;-56
2022/07/15 02:48:53;;;;;;;;;;;;;;;16.62;52.04;97182.25;30001;983;1875;-57
2022/07/15 02:49:24;;;;;;;;;;;;;;;16.63;51.58;97183.81;30001;983;1875;-56
2022/07/15 02:49:55;;;;;;;;;;;;;;;16.66;51.55;97182.41;30001;983;1875;-56
2022/07/15 02:50:26;;;;;;;;;;;;;;;16.66;51.19;97182.41;30001;983;1862;-56
2022/07/15 02:50:57;;;;;;;;;;;;;;;16.66;51.08;97180.47;30001;983;1866;-56
2022/07/15 02:51:27;;;;;;;;;;;;;;;16.66;50.99;97182.41;30001;983;1875;-56